Time;durP1;ratioP1;P1;durP2;ratioP2;P2;SDS_P1;SDS_P2;PMS_P1;PMS_P2;Temp;Humidity;BMP_temperature;BMP_pressure;BME280_temperature;BME280_humidity;BME280_pressure;Samples;Min_cycle;Max_cycle;Signal;HPM_P1;HPM_P2
2022/04/28 00:01:09;;;;;;;36.10;18.00;;;;;;;5.45;81.35;100214.55;103634;1303;23786;-28
2022/04/28 00:03:38;;;;;;;46.70;18.70;;;;;;;5.38;80.54;100213.94;103606;1303;24211;-28
2022/04/28 00:06:07;;;;;;;43.80;18.50;;;;;;;5.30;80.55;100213.60;103578;1303;23797;-28
2022/04/28 00:08:36;;;;;;;38.70;18.00;;;;;;;5.20;79.63;100212.07;103398;1303;22509;-24
2022/04/28 00:11:05;;;;;;;30.30;15.60;;;;;;;5.08;79.72;100212.44;103536;1303;23643;-25
2022/04/28 00:13:34;;;;;;;29.60;16.20;;;;;;;4.96;79.82;100211.77;103610;1301;23738;-28
2022/04/28 00:16:04;;;;;;;42.40;17.00;;;;;;;4.85;79.96;100211.70;103583;1303;24234;-25
2022/04/28 00:18:33;;;;;;;32.70;14.80;;;;;;;4.78;82.60;100213.27;103545;1303;23848;-25
2022/04/28 00:21:02;;;;;;;32.60;17.20;;;;;;;4.72;83.13;100217.23;103520;1303;23589;-25
2022/04/28 00:23:31;;;;;;;23.00;10.90;;;;;;;4.65;83.54;100217.81;103433;1303;25131;-27
2022/04/28 00:26:00;;;;;;;32.70;14.20;;;;;;;4.62;79.66;100216.83;103585;1303;24966;-27
2022/04/28 00:28:29;;;;;;;33.70;14.40;;;;;;;4.58;78.56;100218.08;103563;1303;23633;-25
2022/04/28 00:30:57;;;;;;;31.50;15.20;;;;;;;4.55;78.86;100217.95;103506;1303;24355;-25
2022/04/28 00:33:27;;;;;;;26.70;13.50;;;;;;;4.52;79.14;100216.80;103541;1303;25082;-28
2022/04/28 00:35:56;;;;;;;28.30;14.30;;;;;;;4.45;79.65;100213.94;103532;1303;23637;-28
2022/04/28 00:38:25;;;;;;;31.80;15.90;;;;;;;4.40;79.90;100210.80;103590;1303;22515;-26
2022/04/28 00:40:54;;;;;;;28.90;14.20;;;;;;;4.36;80.20;100209.24;103548;1303;23599;-24
2022/04/28 00:43:28;;;;;;;24.70;11.80;;;;;;;4.37;83.34;100211.40;103554;1303;22503;-28
2022/04/28 00:45:57;;;;;;;43.40;17.40;;;;;;;4.38;82.53;100212.80;103525;1302;23888;-29
2022/04/28 00:51:00;;;;;;;36.70;12.20;;;;;;;4.21;81.00;100214.47;103509;1303;22789;-27
2022/04/28 00:53:30;;;;;;;30.70;13.10;;;;;;;4.16;82.96;100216.68;103629;1303;24417;-25
2022/04/28 00:55:59;;;;;;;62.20;29.50;;;;;;;4.12;84.21;100215.64;103550;1303;24313;-25
2022/04/28 00:58:28;;;;;;;58.20;26.30;;;;;;;4.06;83.16;100214.20;103571;1303;22568;-27
2022/04/28 01:00:57;;;;;;;47.60;23.60;;;;;;;3.99;83.26;100212.29;103546;1303;24208;-25
2022/04/28 01:03:30;;;;;;;47.90;20.30;;;;;;;3.92;82.35;100209.92;103569;1303;22509;-24
2022/04/28 01:05:59;;;;;;;65.90;23.20;;;;;;;3.84;81.96;100206.41;103492;1303;22796;-28
2022/04/28 01:08:28;;;;;;;43.20;19.10;;;;;;;3.77;81.50;100203.65;103561;1303;22773;-28
2022/04/28 01:10:57;;;;;;;51.90;19.70;;;;;;;3.72;82.09;100206.17;103549;1303;23810;-25
2022/04/28 01:13:26;;;;;;;48.50;19.70;;;;;;;3.68;82.14;100207.19;103534;1303;23735;-24
2022/04/28 01:15:56;;;;;;;34.90;17.20;;;;;;;3.64;82.40;100205.07;103582;1303;23434;-25
2022/04/28 01:18:25;;;;;;;26.10;15.20;;;;;;;3.59;83.66;100204.59;103546;1303;24013;-28
2022/04/28 01:20:54;;;;;;;27.00;13.40;;;;;;;3.53;86.37;100199.48;103510;1303;24298;-28
2022/04/28 01:23:23;;;;;;;31.30;14.20;;;;;;;3.46;86.60;100198.15;103488;1303;22496;-28
2022/04/28 01:25:52;;;;;;;19.60;10.40;;;;;;;3.41;88.63;100205.08;103497;1303;23796;-25
2022/04/28 01:28:20;;;;;;;21.40;11.20;;;;;;;3.40;86.96;100207.84;103546;1303;23809;-25
2022/04/28 01:30:49;;;;;;;17.60;11.50;;;;;;;3.43;86.34;100209.92;103581;1303;22790;-28
2022/04/28 01:33:19;;;;;;;18.20;11.00;;;;;;;3.39;86.45;100212.59;103550;1303;23061;-30
2022/04/28 01:35:47;;;;;;;24.30;11.60;;;;;;;3.28;86.55;100216.30;103559;1303;24005;-28
2022/04/28 01:38:16;;;;;;;25.60;10.10;;;;;;;3.22;87.35;100219.08;103509;1303;25116;-29
2022/04/28 01:40:46;;;;;;;16.00;9.90;;;;;;;3.06;87.97;100215.86;103564;1303;23784;-25
2022/04/28 01:43:14;;;;;;;15.70;9.60;;;;;;;3.00;87.36;100213.02;103590;1303;23818;-26
2022/04/28 01:45:43;;;;;;;18.60;8.90;;;;;;;2.90;87.89;100214.01;103596;1303;23795;-28
2022/04/28 01:48:12;;;;;;;18.30;8.20;;;;;;;2.81;89.73;100213.85;103580;1303;22886;-28
2022/04/28 01:54:57;;;;;;;20.80;9.70;;;;;;;2.77;89.13;100214.92;103517;1303;23872;-28
2022/04/28 01:56:03;;;;;;;25.20;10.40;;;;;;;2.59;90.78;100222.02;103603;1303;25030;-28
2022/04/28 01:58:32;;;;;;;15.00;7.90;;;;;;;2.63;91.32;100222.23;103567;1303;23628;-25
2022/04/28 02:01:01;;;;;;;20.30;11.10;;;;;;;2.66;91.59;100223.39;103539;1302;23767;-25
2022/04/28 02:03:29;;;;;;;26.20;12.80;;;;;;;2.61;91.76;100222.23;103561;1303;22514;-29
2022/04/28 02:05:58;;;;;;;29.90;11.80;;;;;;;2.69;91.83;100220.55;103549;1303;23719;-30
2022/04/28 02:08:27;;;;;;;35.40;16.60;;;;;;;2.62;92.33;100223.92;103600;1303;23911;-28
2022/04/28 02:10:57;;;;;;;29.50;14.60;;;;;;;2.59;92.51;100222.73;103597;1303;22839;-28
2022/04/28 02:13:26;;;;;;;24.60;15.60;;;;;;;2.59;92.56;100223.98;103534;1303;23764;-28
2022/04/28 02:15:55;;;;;;;34.50;12.60;;;;;;;2.67;93.51;100223.86;103597;1303;22505;-28
2022/04/28 02:18:24;;;;;;;36.60;16.50;;;;;;;2.79;92.61;100223.02;103531;1303;24266;-30
2022/04/28 02:20:53;;;;;;;24.60;14.30;;;;;;;2.84;91.72;100221.23;103522;1303;24243;-25
2022/04/28 02:23:22;;;;;;;26.30;14.00;;;;;;;2.87;91.39;100221.50;103616;1303;23609;-25
2022/04/28 02:25:51;;;;;;;26.00;12.60;;;;;;;2.99;92.24;100218.52;103559;1303;23556;-25
2022/04/28 02:28:20;;;;;;;24.30;12.60;;;;;;;3.11;91.72;100217.06;103597;1303;24240;-29
2022/04/28 02:30:49;;;;;;;31.40;16.00;;;;;;;3.18;91.18;100215.17;103552;1303;25117;-28
2022/04/28 02:33:19;;;;;;;37.60;16.30;;;;;;;3.26;91.23;100209.96;103556;1303;22496;-25
2022/04/28 02:35:48;;;;;;;26.70;13.10;;;;;;;3.30;91.09;100211.16;103567;1303;23609;-28
2022/04/28 02:38:17;;;;;;;21.10;12.30;;;;;;;3.35;91.24;100204.73;103610;1303;24316;-25
2022/04/28 02:40:46;;;;;;;24.00;12.90;;;;;;;3.42;91.08;100200.29;103573;1302;23498;-28
2022/04/28 02:43:15;;;;;;;25.10;12.70;;;;;;;3.51;91.26;100200.02;103543;1302;22496;-28
2022/04/28 02:45:43;;;;;;;20.30;11.10;;;;;;;3.59;91.04;100200.76;103544;1303;22608;-28
2022/04/28 02:48:12;;;;;;;21.60;12.70;;;;;;;3.66;91.27;100204.52;103541;1303;22727;-28
2022/04/28 02:50:41;;;;;;;21.80;12.40;;;;;;;3.74;90.55;100200.11;103552;1303;24348;-28
2022/04/28 02:53:10;;;;;;;26.60;14.30;;;;;;;3.82;90.28;100198.96;103615;1302;24210;-28
2022/04/28 02:55:40;;;;;;;33.50;14.70;;;;;;;3.80;90.15;100199.34;103595;1303;22761;-28
2022/04/28 02:58:09;;;;;;;23.70;12.50;;;;;;;3.79;89.85;100203.30;103569;1303;24394;-28
2022/04/28 03:00:38;;;;;;;23.70;13.60;;;;;;;3.80;89.73;100203.89;103592;1303;23599;-28
2022/04/28 03:03:08;;;;;;;24.50;13.20;;;;;;;3.79;89.72;100205.79;103581;1303;23131;-27
2022/04/28 03:10:46;;;;;;;25.30;14.70;;;;;;;3.76;89.40;100205.46;103551;1303;22789;-28
2022/04/28 03:10:58;;;;;;;34.40;13.40;;;;;;;3.78;89.45;100209.58;103527;1303;22943;-26
2022/04/28 03:13:27;;;;;;;23.90;11.70;;;;;;;3.81;89.46;100211.24;103577;1303;22508;-26
2022/04/28 03:15:56;;;;;;;18.70;10.60;;;;;;;3.86;89.38;100214.40;103566;1303;22708;-25
2022/04/28 03:18:25;;;;;;;14.20;8.80;;;;;;;3.94;89.46;100215.60;103594;1303;25088;-25
2022/04/28 03:20:55;;;;;;;19.60;11.60;;;;;;;4.04;89.63;100215.95;103599;1303;22769;-24
2022/04/28 03:23:24;;;;;;;23.50;12.80;;;;;;;4.07;88.93;100216.44;103565;1303;23797;-25
2022/04/28 03:25:53;;;;;;;17.80;11.40;;;;;;;4.06;88.68;100219.29;103575;1303;22999;-25
2022/04/28 03:28:22;;;;;;;16.60;10.00;;;;;;;4.07;88.51;100218.67;103616;1303;23507;-27
2022/04/28 03:30:51;;;;;;;18.60;10.80;;;;;;;4.07;88.60;100219.27;103563;1303;24301;-25
2022/04/28 03:33:20;;;;;;;16.80;9.80;;;;;;;4.07;88.84;100223.88;103580;1303;22515;-28
2022/04/28 03:35:49;;;;;;;16.80;10.30;;;;;;;4.09;88.85;100225.10;103573;1303;23806;-25
2022/04/28 03:38:18;;;;;;;19.90;9.50;;;;;;;4.15;88.63;100224.91;103539;1303;22511;-30
2022/04/28 03:40:47;;;;;;;21.60;12.10;;;;;;;4.25;89.17;100226.38;103602;1303;24297;-27
2022/04/28 03:43:17;;;;;;;22.70;10.50;;;;;;;4.39;89.13;100232.40;103566;1303;22501;-27
2022/04/28 03:45:46;;;;;;;19.40;11.20;;;;;;;4.52;89.45;100232.29;103616;1303;24215;-27
2022/04/28 03:48:16;;;;;;;17.50;11.00;;;;;;;4.61;88.83;100231.59;103602;1303;22593;-24
2022/04/28 03:50:45;;;;;;;20.50;11.10;;;;;;;4.63;88.47;100231.98;103553;1303;23772;-28
2022/04/28 03:53:14;;;;;;;16.00;10.20;;;;;;;4.64;88.22;100232.11;103481;1303;25089;-29
2022/04/28 03:55:43;;;;;;;18.40;11.00;;;;;;;4.66;88.05;100232.55;103494;1303;23798;-26
2022/04/28 03:58:12;;;;;;;21.20;9.30;;;;;;;4.64;87.93;100239.70;103562;1303;23853;-27
2022/04/28 04:00:42;;;;;;;17.80;9.40;;;;;;;4.61;88.66;100239.39;103594;1303;22512;-29
2022/04/28 04:03:11;;;;;;;20.40;10.50;;;;;;;4.69;88.92;100241.94;103586;1303;23540;-28
2022/04/28 04:05:40;;;;;;;15.40;10.00;;;;;;;4.75;88.59;100242.13;103495;1303;25011;-25
2022/04/28 04:08:09;;;;;;;12.50;9.20;;;;;;;4.79;87.98;100243.37;103560;1303;22767;-28
2022/04/28 04:10:37;;;;;;;16.90;8.80;;;;;;;4.82;87.97;100248.08;103585;1303;24212;-25
2022/04/28 04:13:06;;;;;;;14.80;8.80;;;;;;;4.84;88.05;100247.48;103532;1303;24220;-27
2022/04/28 04:15:35;;;;;;;23.70;10.70;;;;;;;4.87;88.05;100247.55;103250;1303;375463;-25
2022/04/28 04:18:04;;;;;;;18.70;10.30;;;;;;;4.92;88.17;100247.63;103524;1303;22764;-28
2022/04/28 04:20:34;;;;;;;29.60;13.00;;;;;;;4.97;87.91;100247.07;103565;1303;22502;-25
2022/04/28 04:23:05;;;;;;;15.70;10.90;;;;;;;5.03;87.86;100245.27;103619;1303;23612;-25
2022/04/28 04:25:34;;;;;;;21.30;11.40;;;;;;;5.02;87.93;100244.11;103581;1303;22511;-29
2022/04/28 04:28:04;;;;;;;22.40;10.40;;;;;;;4.96;88.09;100240.91;103521;1303;22501;-25
2022/04/28 04:33:06;;;;;;;14.00;9.80;;;;;;;4.92;88.24;100248.04;103397;1303;24288;-28
2022/04/28 04:35:35;;;;;;;14.70;8.70;;;;;;;4.87;88.09;100249.51;103580;1303;22502;-28
2022/04/28 04:38:04;;;;;;;18.90;10.90;;;;;;;4.85;88.42;100252.06;103560;1303;24237;-25
2022/04/28 04:40:33;;;;;;;22.50;13.50;;;;;;;4.87;88.50;100252.20;103624;1303;22721;-25
2022/04/28 04:43:03;;;;;;;19.50;12.00;;;;;;;4.90;88.55;100252.04;103572;1303;24252;-28
2022/04/28 04:45:32;;;;;;;19.20;10.10;;;;;;;4.92;88.31;100253.13;103543;1303;25109;-25
2022/04/28 04:48:01;;;;;;;20.20;10.90;;;;;;;4.96;88.56;100255.09;103616;1303;23950;-25
2022/04/28 04:50:29;;;;;;;12.50;8.40;;;;;;;5.00;88.17;100259.35;103532;1303;22508;-25
2022/04/28 04:52:58;;;;;;;15.10;9.80;;;;;;;5.02;89.03;100258.42;103483;1303;25130;-25
2022/04/28 04:55:27;;;;;;;25.50;13.40;;;;;;;5.09;88.74;100257.59;103599;1303;25229;-26
2022/04/28 04:57:56;;;;;;;27.20;12.00;;;;;;;5.19;88.65;100255.29;103578;1303;23917;-29
2022/04/28 05:00:26;;;;;;;32.60;13.70;;;;;;;5.47;88.87;100252.88;103590;1302;24222;-28
2022/04/28 05:02:54;;;;;;;21.70;12.30;;;;;;;5.82;89.17;100250.17;103611;1303;24256;-28
2022/04/28 05:05:23;;;;;;;24.80;13.80;;;;;;;6.17;88.25;100250.91;103570;1303;24217;-29
2022/04/28 05:07:52;;;;;;;19.30;12.40;;;;;;;6.44;87.75;100250.83;103580;1303;22499;-28
2022/04/28 05:10:21;;;;;;;20.60;11.90;;;;;;;6.67;87.28;100252.09;103547;1303;24013;-28
2022/04/28 05:12:50;;;;;;;21.00;10.80;;;;;;;6.83;87.11;100258.73;103570;1303;23829;-29
2022/04/28 05:15:19;;;;;;;15.90;9.50;;;;;;;7.00;86.30;100260.20;103531;1303;24190;-25
2022/04/28 05:17:48;;;;;;;21.20;13.20;;;;;;;7.05;85.81;100264.05;103526;1303;25136;-29
2022/04/28 05:20:17;;;;;;;15.20;7.70;;;;;;;7.00;85.41;100264.17;103676;1303;25423;-26
2022/04/28 05:22:47;;;;;;;12.00;8.00;;;;;;;7.03;84.98;100264.54;103521;1303;24332;-29
2022/04/28 05:25:16;;;;;;;11.30;7.40;;;;;;;7.13;85.89;100266.30;103544;1302;23736;-26
2022/04/28 05:27:46;;;;;;;15.50;8.50;;;;;;;7.23;85.25;100268.36;103568;1303;22816;-25
2022/04/28 05:30:15;;;;;;;9.70;5.80;;;;;;;7.33;85.18;100270.69;103453;1303;22513;-27
2022/04/28 05:32:44;;;;;;;12.20;8.00;;;;;;;7.52;85.46;100270.67;103578;1303;22761;-29
2022/04/28 05:35:12;;;;;;;12.80;8.30;;;;;;;7.75;85.70;100267.89;103513;1303;24375;-28
2022/04/28 05:37:41;;;;;;;19.50;9.20;;;;;;;8.11;84.93;100268.40;103551;1303;24386;-25
2022/04/28 05:40:11;;;;;;;11.40;7.10;;;;;;;8.61;85.21;100273.06;103521;1303;23590;-29
2022/04/28 05:47:45;;;;;;;15.60;8.90;;;;;;;8.93;81.20;100282.77;103563;1303;23602;-27
2022/04/28 05:50:14;;;;;;;21.20;9.30;;;;;;;8.98;81.31;100286.73;103528;1303;22632;-24
2022/04/28 05:52:43;;;;;;;20.20;9.50;;;;;;;9.13;80.65;100288.33;103638;1303;23520;-24
2022/04/28 05:55:12;;;;;;;18.60;9.50;;;;;;;9.18;80.28;100290.98;103578;1303;23530;-27
2022/04/28 05:57:41;;;;;;;21.80;14.20;;;;;;;9.49;77.86;100290.90;103389;1303;22821;-23
2022/04/28 06:00:10;;;;;;;13.10;8.90;;;;;;;9.50;77.59;100292.03;103389;1303;24226;-31
2022/04/28 06:02:39;;;;;;;19.50;7.30;;;;;;;9.84;75.39;100298.86;103645;1303;25223;-27
2022/04/28 06:05:08;;;;;;;22.90;8.00;;;;;;;9.70;75.96;100299.98;103563;1303;22500;-29
2022/04/28 06:07:37;;;;;;;15.60;8.40;;;;;;;9.78;77.48;100299.27;103559;1303;24208;-28
2022/04/28 06:10:07;;;;;;;10.10;7.70;;;;;;;10.02;77.32;100300.79;103562;1303;24246;-29
2022/04/28 06:12:36;;;;;;;18.60;10.50;;;;;;;10.34;75.98;100298.04;103499;1303;25075;-31
2022/04/28 06:15:06;;;;;;;17.70;10.60;;;;;;;10.72;74.10;100298.04;103544;1303;23758;-25
2022/04/28 06:17:35;;;;;;;20.80;11.50;;;;;;;10.66;72.58;100294.48;103541;1303;23747;-25
2022/04/28 06:20:04;;;;;;;18.70;10.80;;;;;;;11.01;71.47;100299.09;103621;1303;25054;-29
2022/04/28 06:22:33;;;;;;;17.10;11.10;;;;;;;11.18;69.44;100302.32;103350;1303;22626;-25
2022/04/28 06:25:03;;;;;;;17.30;11.00;;;;;;;11.44;67.80;100301.38;103550;1303;25108;-30
2022/04/28 06:27:32;;;;;;;12.10;8.20;;;;;;;11.13;67.12;100301.23;103586;1303;24256;-30
2022/04/28 06:30:01;;;;;;;13.80;9.00;;;;;;;11.23;68.97;100303.42;103587;1303;25319;-29
2022/04/28 06:32:30;;;;;;;13.00;8.80;;;;;;;11.44;67.51;100301.40;103597;1303;24996;-24
2022/04/28 06:34:59;;;;;;;13.90;8.70;;;;;;;11.64;67.80;100301.60;103576;1303;24374;-29
2022/04/28 06:37:28;;;;;;;14.90;8.40;;;;;;;11.93;66.39;100305.44;103531;1303;25223;-28
2022/04/28 06:39:57;;;;;;;16.90;10.80;;;;;;;11.99;65.91;100304.81;103597;1303;23637;-25
2022/04/28 06:42:26;;;;;;;19.30;10.60;;;;;;;11.91;67.19;100308.59;103414;1303;22506;-28
2022/04/28 06:44:55;;;;;;;10.10;8.40;;;;;;;12.27;65.76;100307.20;103579;1303;22503;-25
2022/04/28 06:47:24;;;;;;;13.00;8.30;;;;;;;12.22;65.00;100308.10;103544;1303;25038;-28
2022/04/28 06:49:53;;;;;;;17.10;10.30;;;;;;;12.08;64.44;100310.34;103514;1303;24344;-29
2022/04/28 06:52:22;;;;;;;11.20;8.30;;;;;;;12.12;65.02;100312.92;103383;1303;23995;-25
2022/04/28 06:54:51;;;;;;;13.80;9.00;;;;;;;12.59;63.66;100310.55;103317;1303;22502;-28
2022/04/28 06:57:20;;;;;;;12.50;9.40;;;;;;;12.39;63.72;100314.36;103576;1303;24243;-30
2022/04/28 06:59:50;;;;;;;13.00;9.50;;;;;;;12.45;64.68;100313.41;103596;1303;25009;-30
2022/04/28 07:02:20;;;;;;;13.20;9.10;;;;;;;12.85;63.68;100316.81;103368;1303;24315;-30
2022/04/28 07:04:49;;;;;;;13.80;10.90;;;;;;;12.81;62.64;100315.89;103589;1301;25424;-25
2022/04/28 07:07:18;;;;;;;17.10;11.30;;;;;;;12.84;62.77;100315.43;103589;1303;23756;-25
2022/04/28 07:09:48;;;;;;;16.80;10.80;;;;;;;12.93;62.32;100315.92;103577;1303;24323;-26
2022/04/28 07:12:17;;;;;;;19.10;12.80;;;;;;;13.20;62.14;100316.11;103557;1303;25456;-25
2022/04/28 07:14:46;;;;;;;14.20;7.60;;;;;;;13.00;62.79;100320.44;103578;1303;22515;-29
2022/04/28 07:17:15;;;;;;;17.40;7.70;;;;;;;13.32;61.70;100321.22;103538;1303;24993;-25
2022/04/28 07:19:44;;;;;;;16.30;11.20;;;;;;;13.50;61.68;100324.20;103491;1303;24993;-28
2022/04/28 07:22:13;;;;;;;18.50;11.30;;;;;;;13.50;61.99;100330.50;103386;1303;23435;-29
2022/04/28 07:24:42;;;;;;;22.30;11.00;;;;;;;13.68;61.91;100328.02;103583;1303;22520;-24
2022/04/28 07:27:11;;;;;;;12.90;9.10;;;;;;;13.95;61.20;100328.17;103588;1303;22657;-24
2022/04/28 07:29:41;;;;;;;10.70;7.50;;;;;;;14.11;60.55;100327.25;103487;1303;23742;-24
2022/04/28 07:32:09;;;;;;;16.00;9.30;;;;;;;14.48;59.83;100330.98;103568;1303;22761;-24
2022/04/28 07:34:38;;;;;;;11.50;7.60;;;;;;;14.62;59.18;100329.36;103552;1303;22508;-24
2022/04/28 07:37:07;;;;;;;13.50;7.00;;;;;;;14.60;59.26;100330.44;103604;1303;24211;-25
2022/04/28 07:39:36;;;;;;;11.80;7.30;;;;;;;14.75;59.14;100331.52;103586;1303;25029;-26
2022/04/28 07:42:05;;;;;;;8.10;6.40;;;;;;;14.89;55.97;100327.09;103582;1303;24214;-29
2022/04/28 07:44:35;;;;;;;7.60;4.80;;;;;;;14.92;54.99;100328.48;103545;1303;22514;-25
2022/04/28 07:47:05;;;;;;;9.20;5.20;;;;;;;14.78;54.42;100327.33;103556;1303;24406;-29
2022/04/28 07:49:36;;;;;;;7.10;5.60;;;;;;;15.03;54.69;100330.88;103551;1303;24306;-29
2022/04/28 07:52:05;;;;;;;6.70;5.00;;;;;;;14.97;54.90;100333.39;103550;1303;22748;-29
2022/04/28 07:54:34;;;;;;;3.80;3.40;;;;;;;14.97;53.65;100334.27;103572;1303;23609;-28
2022/04/28 07:57:03;;;;;;;5.30;3.50;;;;;;;15.45;52.94;100333.49;103593;1303;22600;-30
2022/04/28 07:59:32;;;;;;;5.30;4.00;;;;;;;15.02;52.13;100334.55;103625;1303;24278;-26
2022/04/28 08:02:03;;;;;;;3.70;2.90;;;;;;;15.12;53.08;100339.63;103631;1303;23609;-26
2022/04/28 08:04:32;;;;;;;6.20;3.60;;;;;;;15.34;51.94;100343.72;103608;1303;25601;-26
2022/04/28 08:07:01;;;;;;;3.70;2.60;;;;;;;15.54;49.56;100343.96;103675;1303;22509;-25
2022/04/28 08:09:30;;;;;;;3.40;2.50;;;;;;;15.53;50.79;100347.67;103585;1303;22604;-29
2022/04/28 08:12:00;;;;;;;2.60;2.20;;;;;;;15.78;48.48;100350.02;103598;1303;25045;-25
2022/04/28 08:14:30;;;;;;;2.30;1.70;;;;;;;15.48;46.27;100354.05;103377;1303;24281;-25
2022/04/28 08:16:59;;;;;;;2.90;2.20;;;;;;;15.63;46.16;100356.50;103534;1303;24397;-25
2022/04/28 08:19:28;;;;;;;2.30;2.00;;;;;;;15.90;45.00;100358.05;103611;1303;24410;-25
2022/04/28 08:21:57;;;;;;;2.50;1.60;;;;;;;15.80;44.47;100359.33;103604;1303;24447;-29
2022/04/28 08:24:26;;;;;;;4.30;3.00;;;;;;;15.89;45.87;100357.93;103553;1303;22657;-25
2022/04/28 08:26:55;;;;;;;8.20;2.70;;;;;;;15.64;46.22;100356.66;103531;1303;24272;-26
2022/04/28 08:29:24;;;;;;;3.20;2.60;;;;;;;15.86;46.40;100355.78;103582;1303;25111;-25
2022/04/28 08:31:53;;;;;;;4.80;2.10;;;;;;;15.57;46.12;100356.43;103638;1303;23946;-29
2022/04/28 08:34:22;;;;;;;3.10;2.10;;;;;;;16.10;44.69;100358.48;103580;1303;22838;-29
2022/04/28 08:36:51;;;;;;;3.00;2.80;;;;;;;15.83;47.08;100356.72;103635;1302;22514;-25
2022/04/28 08:39:21;;;;;;;3.20;2.40;;;;;;;16.07;45.23;100358.37;103616;1303;22768;-29
2022/04/28 08:41:50;;;;;;;4.50;2.50;;;;;;;16.26;45.25;100358.27;103621;1303;24283;-25
2022/04/28 08:44:21;;;;;;;3.00;2.30;;;;;;;15.94;43.67;100357.77;103546;1303;23600;-29
2022/04/28 08:46:52;;;;;;;5.80;2.60;;;;;;;16.01;44.70;100359.16;103581;1303;25281;-29
2022/04/28 08:49:25;;;;;;;5.10;3.60;;;;;;;16.06;46.01;100362.40;103581;1303;23738;-31
2022/04/28 08:51:55;;;;;;;3.00;1.60;;;;;;;16.46;45.59;100364.29;103634;1303;25054;-29
2022/04/28 08:54:26;;;;;;;4.00;2.80;;;;;;;16.09;44.52;100363.33;103580;1302;23864;-29
2022/04/28 08:56:56;;;;;;;3.80;2.60;;;;;;;15.94;44.97;100365.15;103530;1303;22623;-29
2022/04/28 08:59:25;;;;;;;7.20;2.90;;;;;;;16.39;44.71;100360.97;103619;1303;24319;-29
2022/04/28 09:01:54;;;;;;;12.00;2.80;;;;;;;16.16;46.09;100364.85;103606;1302;22505;-25
2022/04/28 09:04:23;;;;;;;3.70;2.60;;;;;;;16.50;45.36;100361.73;103554;1303;22764;-25
2022/04/28 09:06:55;;;;;;;7.20;2.70;;;;;;;16.71;44.60;100358.95;103538;1303;22759;-29
2022/04/28 09:09:25;;;;;;;3.50;1.70;;;;;;;16.92;45.05;100358.34;103608;1303;25344;-26
2022/04/28 09:11:59;;;;;;;1.30;1.20;;;;;;;17.12;42.49;100354.24;103550;1303;22551;-29
2022/04/28 09:14:30;;;;;;;2.40;1.80;;;;;;;16.97;42.15;100358.61;103578;1303;22869;-25
2022/04/28 09:17:00;;;;;;;6.20;2.30;;;;;;;16.63;44.01;100357.42;103561;1303;24088;-26
2022/04/28 09:19:33;;;;;;;4.10;2.20;;;;;;;17.25;45.09;100353.77;103629;1303;24922;-25
2022/04/28 09:22:08;;;;;;;3.60;2.80;;;;;;;17.23;43.52;100353.06;103520;1303;22700;-25
2022/04/28 09:24:39;;;;;;;2.60;2.10;;;;;;;17.69;41.54;100356.90;103603;1303;23797;-25
2022/04/28 09:27:08;;;;;;;5.70;3.20;;;;;;;17.49;40.45;100354.69;103561;1303;22609;-29
2022/04/28 09:29:39;;;;;;;4.40;3.70;;;;;;;16.90;44.32;100355.02;103615;1303;24393;-29
2022/04/28 09:32:10;;;;;;;4.20;2.90;;;;;;;17.07;42.84;100353.94;103688;1303;25401;-25
2022/04/28 09:34:46;;;;;;;4.10;2.60;;;;;;;16.06;44.32;100357.89;103634;1303;22646;-29
2022/04/28 09:37:18;;;;;;;4.80;2.70;;;;;;;17.22;42.07;100351.43;103665;1303;24948;-25
2022/04/28 09:42:43;;;;;;;3.60;2.30;;;;;;;17.90;40.42;100354.80;103554;1303;24996;-30
2022/04/28 09:45:13;;;;;;;3.90;1.60;;;;;;;17.77;39.19;100353.57;103548;1303;24059;-27
2022/04/28 09:47:42;;;;;;;2.00;1.30;;;;;;;17.51;39.01;100358.48;103576;1303;22508;-28
2022/04/28 09:50:12;;;;;;;3.40;1.40;;;;;;;17.50;38.79;100359.11;103567;1303;23840;-25
2022/04/28 09:52:43;;;;;;;7.70;2.10;;;;;;;17.87;39.03;100356.16;103536;1303;22508;-25
2022/04/28 09:55:12;;;;;;;1.60;1.40;;;;;;;17.55;38.32;100355.82;103620;1303;22512;-28
2022/04/28 09:57:42;;;;;;;1.90;1.40;;;;;;;18.09;39.20;100360.08;103516;1303;22631;-29
2022/04/28 10:00:11;;;;;;;0.60;0.60;;;;;;;18.73;36.97;100357.41;103595;1303;24398;-25
2022/04/28 10:02:40;;;;;;;3.50;1.50;;;;;;;18.58;36.59;100359.38;103563;1303;23912;-25
2022/04/28 10:05:09;;;;;;;2.60;1.20;;;;;;;17.50;37.92;100359.59;103560;1303;24263;-25
2022/04/28 10:07:38;;;;;;;5.30;1.80;;;;;;;17.52;38.93;100355.70;103547;1303;25145;-25
2022/04/28 10:10:08;;;;;;;1.30;1.20;;;;;;;17.72;37.56;100358.89;103563;1303;22504;-25
2022/04/28 10:12:38;;;;;;;7.50;3.10;;;;;;;17.85;38.80;100362.80;103598;1303;22649;-25
2022/04/28 10:15:09;;;;;;;2.90;1.40;;;;;;;18.23;39.15;100357.68;103519;1302;24433;-25
2022/04/28 10:17:45;;;;;;;10.80;2.20;;;;;;;18.08;39.81;100361.31;103557;1303;22632;-25
2022/04/28 10:20:18;;;;;;;3.80;2.10;;;;;;;18.08;39.29;100358.92;103578;1303;25051;-28
2022/04/28 10:22:47;;;;;;;3.60;2.20;;;;;;;18.13;40.09;100356.20;103523;1303;24290;-25
2022/04/28 10:32:59;;;;;;;1.60;1.20;;;;;;;18.80;38.68;100347.57;103549;1303;25118;-25
2022/04/28 10:35:33;;;;;;;2.20;1.90;;;;;;;18.82;38.24;100353.01;103557;1303;23732;-25
2022/04/28 10:38:05;;;;;;;;;;;;;;;17.93;38.77;100353.74;103588;1303;25213;-30
2022/04/28 10:40:40;;;;;;;3.00;2.70;;;;;;;17.60;38.39;100351.98;103531;1303;24980;-27
2022/04/28 10:43:21;;;;;;;6.10;2.20;;;;;;;17.75;40.66;100352.98;103589;1303;25217;-27
2022/04/28 10:45:51;;;;;;;2.20;2.00;;;;;;;18.42;39.77;100355.94;103573;1303;24355;-24
2022/04/28 10:50:58;;;;;;;2.70;2.40;;;;;;;18.13;38.80;100354.38;103512;1303;23738;-30
2022/04/28 10:53:28;;;;;;;3.10;1.40;;;;;;;18.41;36.58;100347.65;103581;1303;22505;-24
2022/04/28 10:56:07;;;;;;;3.60;1.90;;;;;;;17.84;37.72;100347.52;103616;1303;22502;-25
2022/04/28 10:58:37;;;;;;;3.30;2.90;;;;;;;18.51;40.30;100345.35;103515;1303;24310;-26
2022/04/28 11:01:06;;;;;;;2.80;2.50;;;;;;;18.47;39.40;100344.95;103484;1303;23609;-27
2022/04/28 11:03:42;;;;;;;2.00;1.50;;;;;;;18.05;39.06;100349.58;103557;1303;24281;-28
2022/04/28 11:06:12;;;;;;;2.80;1.80;;;;;;;18.34;36.73;100345.92;103508;1303;23897;-27
2022/04/28 11:08:45;;;;;;;2.10;1.60;;;;;;;18.78;37.05;100348.61;103555;1303;23599;-27
2022/04/28 11:11:14;;;;;;;1.60;1.30;;;;;;;18.70;36.10;100349.11;103622;1303;23894;-25
2022/04/28 11:13:49;;;;;;;2.00;1.60;;;;;;;19.43;36.59;100346.23;103573;1302;23602;-28
2022/04/28 11:16:18;;;;;;;2.70;2.00;;;;;;;19.18;37.41;100347.73;103487;1303;23596;-25
2022/04/28 11:18:47;;;;;;;4.00;2.90;;;;;;;19.86;35.51;100346.98;103565;1302;23785;-29
2022/04/28 11:21:16;;;;;;;3.60;1.90;;;;;;;19.00;35.88;100345.02;103401;1303;25012;-26
2022/04/28 11:23:46;;;;;;;1.50;1.10;;;;;;;18.53;37.33;100350.42;103531;1303;22511;-29
2022/04/28 11:26:17;;;;;;;3.40;1.80;;;;;;;19.31;34.41;100347.98;103530;1303;24228;-28
2022/04/28 11:28:47;;;;;;;2.00;1.40;;;;;;;20.12;35.42;100344.08;103600;1303;22554;-28
2022/04/28 11:31:18;;;;;;;6.80;2.20;;;;;;;20.02;35.37;100332.52;103525;1303;24212;-25
2022/04/28 11:33:50;;;;;;;3.80;2.10;;;;;;;18.94;37.40;100342.11;103585;1303;25375;-25
2022/04/28 11:36:24;;;;;;;2.00;1.00;;;;;;;18.62;37.71;100341.19;103492;1303;24355;-28
2022/04/28 11:38:57;;;;;;;2.50;1.90;;;;;;;18.98;37.21;100336.21;103520;1303;22693;-28
2022/04/28 11:41:31;;;;;;;3.10;1.30;;;;;;;18.76;37.95;100345.20;103376;1303;22967;-28
2022/04/28 11:44:01;;;;;;;1.80;1.20;;;;;;;18.84;38.14;100344.23;103531;1303;24986;-28
2022/04/28 11:46:30;;;;;;;2.90;2.10;;;;;;;18.42;38.06;100352.04;103591;1302;25338;-28
2022/04/28 11:48:59;;;;;;;2.50;1.80;;;;;;;17.91;37.15;100350.40;103585;1303;24289;-28
2022/04/28 11:51:32;;;;;;;3.40;2.40;;;;;;;17.50;37.69;100349.25;103579;1303;23959;-30